Harmony Sp — 3FWE6 — position and weather

sailwx.info

Track history (hours):
 
Tides and Currents Weather Stations Pressure Air Temp Water Temp Dewpoint Dewpoint Depression Visibility Wind Speed Wind Dir Waves Ship Positions

Harmony Sp

Last reported at 2016-Jul-30 04:25 UTC. Time now 2016-Jul-30 07:19 UTC.
Position N 40°51' E 029°03'.

MMSI: 353359712.

Date/timePositionNaut miles runAvg speedWind from/ knotsBaromVisibWave heightAir tempDewpointWater temp
2016-Jul-30 04:25N 40°51' E 029°03'6 6.8
2016-Jul-30 03:30N 40°53' E 029°11'0 0.0
2016-Jul-30 02:29N 40°53' E 029°11'0 0.1
2016-Jul-30 01:29N 40°53' E 029°11'0 0.0
2016-Jul-30 00:29N 40°53' E 029°11'0 0.0
2016-Jul-29 23:29N 40°53' E 029°11'0 0.1
2016-Jul-29 22:23N 40°53' E 029°11'0 0.1
2016-Jul-29 21:23N 40°53' E 029°11'0 0.0
2016-Jul-29 20:23N 40°53' E 029°11'0 0.0
2016-Jul-29 19:29N 40°53' E 029°11'0 0.0
2016-Jul-29 18:23N 40°53' E 029°11'0 0.0
2016-Jul-29 17:17N 40°53' E 029°11'0 0.1
2016-Jul-29 16:29N 40°53' E 029°11'0 0.0
2016-Jul-29 15:29N 40°53' E 029°11'0 0.0
2016-Jul-29 14:29N 40°53' E 029°11'1 1.3
2016-Jul-29 13:33N 40°51' E 029°10'9 8.7
2016-Jul-29 12:33N 40°45' E 029°18'  
2016-Jul-26 04:21N 40°43' E 029°20'5 6.7
2016-Jul-26 03:33N 40°45' E 029°13'9 8.9
2016-Jul-26 02:30N 40°49' E 029°02'308 6.6
2016-Jul-24 04:06N 43°32' E 034°55'124 9.6
2016-Jul-23 15:11N 44°28' E 037°29'6 8.9
2016-Jul-23 14:30N 44°31' E 037°36'8 8.9
2016-Jul-23 13:34N 44°35' E 037°46'7 7.4
2016-Jul-23 12:34N 44°42' E 037°49'2 1.5
2016-Jul-23 11:32N 44°44' E 037°48'0 0.0
2016-Jul-23 10:32N 44°44' E 037°48'0 0.0
2016-Jul-23 09:32N 44°44' E 037°48'0 0.0
2016-Jul-23 08:32N 44°44' E 037°48'0 0.0
2016-Jul-23 07:32N 44°44' E 037°48'0 0.0
2016-Jul-23 06:32N 44°44' E 037°48'0 0.0
2016-Jul-23 04:32N 44°44' E 037°48'0 0.0
2016-Jul-23 03:32N 44°44' E 037°48'0 0.0
2016-Jul-23 02:32N 44°44' E 037°48'0 0.0
2016-Jul-23 01:32N 44°44' E 037°48'0 0.0
2016-Jul-23 00:32N 44°44' E 037°48'0 0.0
2016-Jul-22 23:32N 44°44' E 037°48'0 0.0
2016-Jul-22 22:32N 44°44' E 037°48'0 0.0
2016-Jul-22 21:32N 44°44' E 037°48'0 0.0
2016-Jul-22 20:32N 44°44' E 037°48'0 0.0
2016-Jul-22 19:32N 44°44' E 037°48'0 0.0
2016-Jul-22 18:32N 44°44' E 037°48'0 0.0
2016-Jul-22 17:32N 44°44' E 037°48'0 0.0
2016-Jul-22 16:32N 44°44' E 037°48'0 0.0
2016-Jul-22 15:32N 44°44' E 037°48'0 0.0
2016-Jul-22 14:32N 44°44' E 037°48'0 0.0
2016-Jul-22 13:32N 44°44' E 037°48'0 0.0
2016-Jul-22 12:32N 44°44' E 037°48'0 0.0
2016-Jul-22 11:32N 44°44' E 037°48'0 0.0
2016-Jul-22 10:32N 44°44' E 037°48'0 0.0
2016-Jul-22 09:32N 44°44' E 037°48'0 0.0
2016-Jul-22 08:32N 44°44' E 037°48'0 0.0
2016-Jul-22 07:32N 44°44' E 037°48'0 0.0
2016-Jul-22 04:32N 44°44' E 037°48'0 0.0
2016-Jul-22 03:32N 44°44' E 037°48'0 0.0
2016-Jul-22 02:32N 44°44' E 037°48'0 0.0
2016-Jul-22 01:32N 44°44' E 037°48'0 0.0
2016-Jul-22 00:32N 44°44' E 037°48'0 0.0
2016-Jul-21 23:32N 44°44' E 037°48'0 0.0
2016-Jul-21 22:32N 44°44' E 037°48'0 0.0
2016-Jul-21 21:32N 44°44' E 037°48'0 0.0
2016-Jul-21 20:32N 44°44' E 037°48'0 0.0
2016-Jul-21 19:32N 44°44' E 037°48'0 0.0
2016-Jul-21 18:32N 44°44' E 037°48'0 0.0
2016-Jul-21 17:32N 44°44' E 037°48'0 0.0
2016-Jul-21 16:32N 44°44' E 037°48'0 0.0
2016-Jul-21 15:32N 44°44' E 037°48'0 0.0
2016-Jul-21 14:32N 44°44' E 037°48'0 0.0
2016-Jul-21 13:32N 44°44' E 037°48'0 0.0
2016-Jul-21 12:32N 44°44' E 037°48'0 0.0
2016-Jul-21 11:32N 44°44' E 037°48'0 0.0
2016-Jul-21 10:32N 44°44' E 037°48'0 0.0
2016-Jul-21 09:32N 44°44' E 037°48'0 0.0
2016-Jul-21 08:32N 44°44' E 037°48'0 0.0
2016-Jul-21 07:32N 44°44' E 037°48'0 0.0
2016-Jul-21 06:32N 44°44' E 037°48'0 0.0
2016-Jul-21 05:32N 44°44' E 037°48'0 0.0
2016-Jul-21 04:32N 44°44' E 037°48'0 0.0
2016-Jul-21 03:32N 44°44' E 037°48'0 0.0
2016-Jul-21 02:32N 44°44' E 037°48'0 0.0
2016-Jul-21 01:32N 44°44' E 037°48'0 0.0
2016-Jul-21 00:32N 44°44' E 037°48'0 0.0
2016-Jul-20 23:32N 44°44' E 037°48'0 0.0
2016-Jul-20 22:32N 44°44' E 037°48'0 0.0
2016-Jul-20 21:32N 44°44' E 037°48'0 0.0
2016-Jul-20 20:32N 44°44' E 037°48'0 0.0
2016-Jul-20 19:32N 44°44' E 037°48'0 0.0
2016-Jul-20 18:32N 44°44' E 037°48'0 0.0
2016-Jul-20 17:32N 44°44' E 037°48'0 0.0
2016-Jul-20 16:32N 44°44' E 037°48'0 0.0
2016-Jul-20 15:32N 44°44' E 037°48'0 0.0
2016-Jul-20 14:32N 44°44' E 037°48'0 0.0
2016-Jul-20 13:32N 44°44' E 037°48'0 0.0
2016-Jul-20 12:32N 44°44' E 037°48'0 0.0
2016-Jul-20 11:32N 44°44' E 037°48'0 0.0
2016-Jul-20 10:32N 44°44' E 037°48'0 0.0
2016-Jul-20 09:32N 44°44' E 037°48'0 0.0
2016-Jul-20 08:32N 44°44' E 037°48'0 0.0
2016-Jul-20 07:32N 44°44' E 037°48'0 0.0
2016-Jul-20 06:32N 44°44' E 037°48'0 0.0
2016-Jul-20 05:32N 44°44' E 037°48'0 0.0
2016-Jul-20 04:32N 44°44' E 037°48'  
Track history (hours):
 
Tides and Currents Weather Stations Pressure Air Temp Water Temp Dewpoint Dewpoint Depression Visibility Wind Speed Wind Dir Waves Ship Positions

Harmony Sp

Last reported at 2016-Jul-30 04:25 UTC. Time now 2016-Jul-30 07:19 UTC.
Position N 40°51' E 029°03'.

MMSI: 353359712.

Date/timePositionNaut miles runAvg speedWind from/ knotsBaromVisibWave heightAir tempDewpointWater temp
2016-Jul-30 04:25N 40°51' E 029°03'6 6.8
2016-Jul-30 03:30N 40°53' E 029°11'0 0.0
2016-Jul-30 02:29N 40°53' E 029°11'0 0.1
2016-Jul-30 01:29N 40°53' E 029°11'0 0.0
2016-Jul-30 00:29N 40°53' E 029°11'0 0.0
2016-Jul-29 23:29N 40°53' E 029°11'0 0.1
2016-Jul-29 22:23N 40°53' E 029°11'0 0.1
2016-Jul-29 21:23N 40°53' E 029°11'0 0.0
2016-Jul-29 20:23N 40°53' E 029°11'0 0.0
2016-Jul-29 19:29N 40°53' E 029°11'0 0.0
2016-Jul-29 18:23N 40°53' E 029°11'0 0.0
2016-Jul-29 17:17N 40°53' E 029°11'0 0.1
2016-Jul-29 16:29N 40°53' E 029°11'0 0.0
2016-Jul-29 15:29N 40°53' E 029°11'0 0.0
2016-Jul-29 14:29N 40°53' E 029°11'1 1.3
2016-Jul-29 13:33N 40°51' E 029°10'9 8.7
2016-Jul-29 12:33N 40°45' E 029°18'  
2016-Jul-26 04:21N 40°43' E 029°20'5 6.7
2016-Jul-26 03:33N 40°45' E 029°13'9 8.9
2016-Jul-26 02:30N 40°49' E 029°02'308 6.6
2016-Jul-24 04:06N 43°32' E 034°55'124 9.6
2016-Jul-23 15:11N 44°28' E 037°29'6 8.9
2016-Jul-23 14:30N 44°31' E 037°36'8 8.9
2016-Jul-23 13:34N 44°35' E 037°46'7 7.4
2016-Jul-23 12:34N 44°42' E 037°49'2 1.5
2016-Jul-23 11:32N 44°44' E 037°48'0 0.0
2016-Jul-23 10:32N 44°44' E 037°48'0 0.0
2016-Jul-23 09:32N 44°44' E 037°48'0 0.0
2016-Jul-23 08:32N 44°44' E 037°48'0 0.0
2016-Jul-23 07:32N 44°44' E 037°48'0 0.0
2016-Jul-23 06:32N 44°44' E 037°48'0 0.0
2016-Jul-23 04:32N 44°44' E 037°48'0 0.0
2016-Jul-23 03:32N 44°44' E 037°48'0 0.0
2016-Jul-23 02:32N 44°44' E 037°48'0 0.0
2016-Jul-23 01:32N 44°44' E 037°48'0 0.0
2016-Jul-23 00:32N 44°44' E 037°48'0 0.0
2016-Jul-22 23:32N 44°44' E 037°48'0 0.0
2016-Jul-22 22:32N 44°44' E 037°48'0 0.0
2016-Jul-22 21:32N 44°44' E 037°48'0 0.0
2016-Jul-22 20:32N 44°44' E 037°48'0 0.0
2016-Jul-22 19:32N 44°44' E 037°48'0 0.0
2016-Jul-22 18:32N 44°44' E 037°48'0 0.0
2016-Jul-22 17:32N 44°44' E 037°48'0 0.0
2016-Jul-22 16:32N 44°44' E 037°48'0 0.0
2016-Jul-22 15:32N 44°44' E 037°48'0 0.0
2016-Jul-22 14:32N 44°44' E 037°48'0 0.0
2016-Jul-22 13:32N 44°44' E 037°48'0 0.0
2016-Jul-22 12:32N 44°44' E 037°48'0 0.0
2016-Jul-22 11:32N 44°44' E 037°48'0 0.0
2016-Jul-22 10:32N 44°44' E 037°48'0 0.0
2016-Jul-22 09:32N 44°44' E 037°48'0 0.0
2016-Jul-22 08:32N 44°44' E 037°48'0 0.0
2016-Jul-22 07:32N 44°44' E 037°48'0 0.0
2016-Jul-22 04:32N 44°44' E 037°48'0 0.0
2016-Jul-22 03:32N 44°44' E 037°48'0 0.0
2016-Jul-22 02:32N 44°44' E 037°48'0 0.0
2016-Jul-22 01:32N 44°44' E 037°48'0 0.0
2016-Jul-22 00:32N 44°44' E 037°48'0 0.0
2016-Jul-21 23:32N 44°44' E 037°48'0 0.0
2016-Jul-21 22:32N 44°44' E 037°48'0 0.0
2016-Jul-21 21:32N 44°44' E 037°48'0 0.0
2016-Jul-21 20:32N 44°44' E 037°48'0 0.0
2016-Jul-21 19:32N 44°44' E 037°48'0 0.0
2016-Jul-21 18:32N 44°44' E 037°48'0 0.0
2016-Jul-21 17:32N 44°44' E 037°48'0 0.0
2016-Jul-21 16:32N 44°44' E 037°48'0 0.0
2016-Jul-21 15:32N 44°44' E 037°48'0 0.0
2016-Jul-21 14:32N 44°44' E 037°48'0 0.0
2016-Jul-21 13:32N 44°44' E 037°48'0 0.0
2016-Jul-21 12:32N 44°44' E 037°48'0 0.0
2016-Jul-21 11:32N 44°44' E 037°48'0 0.0
2016-Jul-21 10:32N 44°44' E 037°48'0 0.0
2016-Jul-21 09:32N 44°44' E 037°48'0 0.0
2016-Jul-21 08:32N 44°44' E 037°48'0 0.0
2016-Jul-21 07:32N 44°44' E 037°48'0 0.0
2016-Jul-21 06:32N 44°44' E 037°48'0 0.0
2016-Jul-21 05:32N 44°44' E 037°48'0 0.0
2016-Jul-21 04:32N 44°44' E 037°48'0 0.0
2016-Jul-21 03:32N 44°44' E 037°48'0 0.0
2016-Jul-21 02:32N 44°44' E 037°48'0 0.0
2016-Jul-21 01:32N 44°44' E 037°48'0 0.0
2016-Jul-21 00:32N 44°44' E 037°48'0 0.0
2016-Jul-20 23:32N 44°44' E 037°48'0 0.0
2016-Jul-20 22:32N 44°44' E 037°48'0 0.0
2016-Jul-20 21:32N 44°44' E 037°48'0 0.0
2016-Jul-20 20:32N 44°44' E 037°48'0 0.0
2016-Jul-20 19:32N 44°44' E 037°48'0 0.0
2016-Jul-20 18:32N 44°44' E 037°48'0 0.0
2016-Jul-20 17:32N 44°44' E 037°48'0 0.0
2016-Jul-20 16:32N 44°44' E 037°48'0 0.0
2016-Jul-20 15:32N 44°44' E 037°48'0 0.0
2016-Jul-20 14:32N 44°44' E 037°48'0 0.0
2016-Jul-20 13:32N 44°44' E 037°48'0 0.0
2016-Jul-20 12:32N 44°44' E 037°48'0 0.0
2016-Jul-20 11:32N 44°44' E 037°48'0 0.0
2016-Jul-20 10:32N 44°44' E 037°48'0 0.0
2016-Jul-20 09:32N 44°44' E 037°48'0 0.0
2016-Jul-20 08:32N 44°44' E 037°48'0 0.0
2016-Jul-20 07:32N 44°44' E 037°48'0 0.0
2016-Jul-20 06:32N 44°44' E 037°48'0 0.0
2016-Jul-20 05:32N 44°44' E 037°48'0 0.0
2016-Jul-20 04:32N 44°44' E 037°48'  

Dump ship's entire track history